sensor_id;sensor_type;location;lat;lon;timestamp;pressure;altitude;pressure_sealevel;temperature;humidity
76866;BME280;66647;52.124;5.416;2024-01-10T00:05:11;103416.59;;;-4.35;65.35
76866;BME280;66647;52.124;5.416;2024-01-10T00:08:17;103411.38;;;-4.36;65.47
76866;BME280;66647;52.124;5.416;2024-01-10T00:11:11;103407.88;;;-4.37;65.71
76866;BME280;66647;52.124;5.416;2024-01-10T00:14:11;103405.53;;;-4.40;66.00
76866;BME280;66647;52.124;5.416;2024-01-10T00:16:45;103411.88;;;-4.41;66.41
76866;BME280;66647;52.124;5.416;2024-01-10T00:19:12;103405.00;;;-4.44;66.58
76866;BME280;66647;52.124;5.416;2024-01-10T00:21:39;103403.16;;;-4.43;66.75
76866;BME280;66647;52.124;5.416;2024-01-10T00:24:12;103403.31;;;-4.45;66.80
76866;BME280;66647;52.124;5.416;2024-01-10T00:27:04;103406.16;;;-4.46;67.00
76866;BME280;66647;52.124;5.416;2024-01-10T00:29:46;103401.66;;;-4.46;67.21
76866;BME280;66647;52.124;5.416;2024-01-10T00:32:13;103394.78;;;-4.48;67.58
76866;BME280;66647;52.124;5.416;2024-01-10T00:35:00;103402.13;;;-4.50;67.56
76866;BME280;66647;52.124;5.416;2024-01-10T00:37:32;103396.78;;;-4.50;67.80
76866;BME280;66647;52.124;5.416;2024-01-10T00:46:40;103399.63;;;-4.52;68.15
76866;BME280;66647;52.124;5.416;2024-01-10T00:49:28;103392.44;;;-4.51;68.26
76866;BME280;66647;52.124;5.416;2024-01-10T00:52:09;103389.25;;;-4.55;68.07
76866;BME280;66647;52.124;5.416;2024-01-10T00:54:35;103392.09;;;-4.56;68.50
76866;BME280;66647;52.124;5.416;2024-01-10T01:00:44;103373.69;;;-4.59;68.52
76866;BME280;66647;52.124;5.416;2024-01-10T01:03:12;103381.72;;;-4.59;68.84
76866;BME280;66647;52.124;5.416;2024-01-10T01:05:39;103381.03;;;-4.61;68.95
76866;BME280;66647;52.124;5.416;2024-01-10T01:14:51;103377.00;;;-4.65;69.29
76866;BME280;66647;52.124;5.416;2024-01-10T01:17:57;103387.72;;;-4.65;69.33
76866;BME280;66647;52.124;5.416;2024-01-10T01:20:23;103371.97;;;-4.68;69.23
76866;BME280;66647;52.124;5.416;2024-01-10T01:22:57;103374.81;;;-4.70;69.71
76866;BME280;66647;52.124;5.416;2024-01-10T01:25:24;103383.69;;;-4.69;69.70
76866;BME280;66647;52.124;5.416;2024-01-10T01:27:51;103379.34;;;-4.70;69.59
76866;BME280;66647;52.124;5.416;2024-01-10T01:30:43;103374.97;;;-4.71;69.61
76866;BME280;66647;52.124;5.416;2024-01-10T01:33:09;103375.97;;;-4.72;69.36
76866;BME280;66647;52.124;5.416;2024-01-10T01:43:25;103368.44;;;-4.77;69.69
76866;BME280;66647;52.124;5.416;2024-01-10T01:45:58;103363.25;;;-4.79;69.76
76866;BME280;66647;52.124;5.416;2024-01-10T01:48:51;103349.19;;;-4.81;70.03
76866;BME280;66647;52.124;5.416;2024-01-10T01:51:45;103351.19;;;-4.83;69.90
76866;BME280;66647;52.124;5.416;2024-01-10T01:54:12;103353.84;;;-4.83;70.16
76866;BME280;66647;52.124;5.416;2024-01-10T01:56:43;103352.19;;;-4.84;70.19
76866;BME280;66647;52.124;5.416;2024-01-10T01:59:13;103352.34;;;-4.85;70.53
76866;BME280;66647;52.124;5.416;2024-01-10T02:02:04;103348.19;;;-4.88;70.34
76866;BME280;66647;52.124;5.416;2024-01-10T02:04:37;103350.00;;;-4.88;70.46
76866;BME280;66647;52.124;5.416;2024-01-10T02:07:29;103349.19;;;-4.89;70.33
76866;BME280;66647;52.124;5.416;2024-01-10T02:09:58;103351.19;;;-4.91;70.66
76866;BME280;66647;52.124;5.416;2024-01-10T02:21:01;103331.25;;;-4.96;70.78
76866;BME280;66647;52.124;5.416;2024-01-10T02:23:28;103327.75;;;-4.97;70.96
76866;BME280;66647;52.124;5.416;2024-01-10T02:25:55;103338.59;;;-4.98;71.02
76866;BME280;66647;52.124;5.416;2024-01-10T02:28:22;103327.22;;;-5.00;71.55
76866;BME280;66647;52.124;5.416;2024-01-10T02:30:51;103326.53;;;-5.02;71.50
76866;BME280;66647;52.124;5.416;2024-01-10T02:33:19;103317.69;;;-5.03;71.70
76866;BME280;66647;52.124;5.416;2024-01-10T02:35:46;103319.69;;;-5.05;71.56
76866;BME280;66647;52.124;5.416;2024-01-10T02:38:14;103327.88;;;-5.07;71.84
76866;BME280;66647;52.124;5.416;2024-01-10T02:44:27;103311.44;;;-5.12;72.40
76866;BME280;66647;52.124;5.416;2024-01-10T02:46:54;103316.97;;;-5.13;72.60
76866;BME280;66647;52.124;5.416;2024-01-10T02:49:21;103316.13;;;-5.14;72.75
76866;BME280;66647;52.124;5.416;2024-01-10T02:52:08;103316.28;;;-5.15;72.85
76866;BME280;66647;52.124;5.416;2024-01-10T02:54:43;103307.94;;;-5.20;72.63
76866;BME280;66647;52.124;5.416;2024-01-10T02:57:12;103314.94;;;-5.19;73.08
76866;BME280;66647;52.124;5.416;2024-01-10T02:59:56;103312.44;;;-5.21;73.17
76866;BME280;66647;52.124;5.416;2024-01-10T03:02:26;103310.59;;;-5.20;73.28
76866;BME280;66647;52.124;5.416;2024-01-10T03:05:34;103318.63;;;-5.20;73.48
76866;BME280;66647;52.124;5.416;2024-01-10T03:08:01;103312.59;;;-5.22;73.59
76866;BME280;66647;52.124;5.416;2024-01-10T03:10:49;103309.25;;;-5.24;73.73
76866;BME280;66647;52.124;5.416;2024-01-10T03:13:43;103316.28;;;-5.23;74.06
76866;BME280;66647;52.124;5.416;2024-01-10T03:16:09;103307.56;;;-5.25;73.70
76866;BME280;66647;52.124;5.416;2024-01-10T03:18:36;103305.06;;;-5.27;74.06
76866;BME280;66647;52.124;5.416;2024-01-10T03:21:03;103301.53;;;-5.27;74.17
76866;BME280;66647;52.124;5.416;2024-01-10T03:23:30;103309.72;;;-5.29;74.14
76866;BME280;66647;52.124;5.416;2024-01-10T03:26:22;103294.53;;;-5.28;74.54
76866;BME280;66647;52.124;5.416;2024-01-10T03:29:15;103302.53;;;-5.28;74.43
76866;BME280;66647;52.124;5.416;2024-01-10T03:31:42;103301.88;;;-5.30;74.22
76866;BME280;66647;52.124;5.416;2024-01-10T03:34:08;103302.84;;;-5.31;74.45
76866;BME280;66647;52.124;5.416;2024-01-10T03:36:56;103309.19;;;-5.32;75.02
76866;BME280;66647;52.124;5.416;2024-01-10T03:39:23;103299.50;;;-5.33;74.76
76866;BME280;66647;52.124;5.416;2024-01-10T03:49:45;103291.81;;;-5.36;75.06
76866;BME280;66647;52.124;5.416;2024-01-10T03:52:12;103298.31;;;-5.39;74.89
76866;BME280;66647;52.124;5.416;2024-01-10T03:54:51;103295.09;;;-5.43;74.93
76866;BME280;66647;52.124;5.416;2024-01-10T03:57:32;103286.25;;;-5.43;75.11
76866;BME280;66647;52.124;5.416;2024-01-10T03:59:59;103292.44;;;-5.43;75.20
76866;BME280;66647;52.124;5.416;2024-01-10T04:02:26;103287.25;;;-5.44;75.07
76866;BME280;66647;52.124;5.416;2024-01-10T04:05:20;103283.91;;;-5.46;75.42
76866;BME280;66647;52.124;5.416;2024-01-10T04:08:12;103277.03;;;-5.49;75.34
76866;BME280;66647;52.124;5.416;2024-01-10T04:10:43;103285.03;;;-5.49;75.53
76866;BME280;66647;52.124;5.416;2024-01-10T04:14:18;103277.19;;;-5.50;75.15
76866;BME280;66647;52.124;5.416;2024-01-10T04:17:01;103276.34;;;-5.51;75.40
76866;BME280;66647;52.124;5.416;2024-01-10T04:19:48;103282.03;;;-5.54;75.34
76866;BME280;66647;52.124;5.416;2024-01-10T04:24:56;103285.72;;;-5.55;75.70
76866;BME280;66647;52.124;5.416;2024-01-10T04:31:41;103278.16;;;-5.59;75.86
76866;BME280;66647;52.124;5.416;2024-01-10T04:34:08;103272.81;;;-5.59;75.85
76866;BME280;66647;52.124;5.416;2024-01-10T04:36:38;103277.31;;;-5.60;75.54
76866;BME280;66647;52.124;5.416;2024-01-10T04:39:43;103276.50;;;-5.60;75.77
76866;BME280;66647;52.124;5.416;2024-01-10T04:42:13;103275.66;;;-5.61;75.81
76866;BME280;66647;52.124;5.416;2024-01-10T04:45:23;103269.63;;;-5.63;75.42
76866;BME280;66647;52.124;5.416;2024-01-10T04:48:10;103272.31;;;-5.63;75.68
76866;BME280;66647;52.124;5.416;2024-01-10T04:50:46;103266.94;;;-5.63;75.60
76866;BME280;66647;52.124;5.416;2024-01-10T04:56:30;103266.44;;;-5.66;75.47
76866;BME280;66647;52.124;5.416;2024-01-10T04:58:57;103263.91;;;-5.68;75.47
76866;BME280;66647;52.124;5.416;2024-01-10T05:01:26;103258.56;;;-5.68;75.49
76866;BME280;66647;52.124;5.416;2024-01-10T05:03:53;103261.25;;;-5.68;75.76
76866;BME280;66647;52.124;5.416;2024-01-10T05:14:57;103261.72;;;-5.72;75.81
76866;BME280;66647;52.124;5.416;2024-01-10T05:20:58;103261.03;;;-5.75;75.72
76866;BME280;66647;52.124;5.416;2024-01-10T05:23:31;103264.69;;;-5.76;76.13
76866;BME280;66647;52.124;5.416;2024-01-10T05:33:31;103242.66;;;-5.78;75.69
76866;BME280;66647;52.124;5.416;2024-01-10T05:35:58;103259.66;;;-5.79;75.81
76866;BME280;66647;52.124;5.416;2024-01-10T05:38:25;103242.13;;;-5.81;76.12
76866;BME280;66647;52.124;5.416;2024-01-10T05:40:52;103235.94;;;-5.82;76.26
76866;BME280;66647;52.124;5.416;2024-01-10T05:47:07;103242.13;;;-5.81;76.01
76866;BME280;66647;52.124;5.416;2024-01-10T05:49:59;103245.78;;;-5.82;76.50
76866;BME280;66647;52.124;5.416;2024-01-10T05:52:27;103249.66;;;-5.85;76.28
76866;BME280;66647;52.124;5.416;2024-01-10T05:54:54;103255.78;;;-5.84;76.13
76866;BME280;66647;52.124;5.416;2024-01-10T05:57:32;103249.66;;;-5.85;76.50
76866;BME280;66647;52.124;5.416;2024-01-10T06:03:09;103248.13;;;-5.87;76.43
76866;BME280;66647;52.124;5.416;2024-01-10T06:05:36;103249.13;;;-5.88;76.52
76866;BME280;66647;52.124;5.416;2024-01-10T06:08:08;103246.44;;;-5.88;76.78
76866;BME280;66647;52.124;5.416;2024-01-10T06:11:05;103248.47;;;-5.90;76.78
76866;BME280;66647;52.124;5.416;2024-01-10T06:13:54;103247.94;;;-5.94;76.79
76866;BME280;66647;52.124;5.416;2024-01-10T06:20:10;103250.94;;;-5.97;76.89
76866;BME280;66647;52.124;5.416;2024-01-10T06:29:54;103254.75;;;-5.99;77.23
76866;BME280;66647;52.124;5.416;2024-01-10T06:37:01;103242.00;;;-6.05;77.25
76866;BME280;66647;52.124;5.416;2024-01-10T06:39:45;103242.00;;;-6.05;77.26
76866;BME280;66647;52.124;5.416;2024-01-10T06:42:15;103245.84;;;-6.08;77.78
76866;BME280;66647;52.124;5.416;2024-01-10T06:44:47;103241.66;;;-6.11;77.78
76866;BME280;66647;52.124;5.416;2024-01-10T06:47:46;103257.97;;;-6.14;77.31
76866;BME280;66647;52.124;5.416;2024-01-10T06:50:14;103256.28;;;-6.15;78.45
76866;BME280;66647;52.124;5.416;2024-01-10T06:52:41;103249.28;;;-6.16;77.77
76866;BME280;66647;52.124;5.416;2024-01-10T07:03:14;103248.25;;;-6.23;78.37
76866;BME280;66647;52.124;5.416;2024-01-10T07:25:44;103252.16;;;-6.35;78.77
76866;BME280;66647;52.124;5.416;2024-01-10T07:33:07;103256.81;;;-6.37;78.57
76866;BME280;66647;52.124;5.416;2024-01-10T07:40:26;103255.81;;;-6.36;78.67
76866;BME280;66647;52.124;5.416;2024-01-10T07:43:49;103276.16;;;-6.35;78.82
76866;BME280;66647;52.124;5.416;2024-01-10T07:46:51;103265.81;;;-6.38;78.88
76866;BME280;66647;52.124;5.416;2024-01-10T07:49:43;103259.47;;;-6.37;78.90
76866;BME280;66647;52.124;5.416;2024-01-10T07:56:04;103284.34;;;-6.36;78.62
76866;BME280;66647;52.124;5.416;2024-01-10T07:58:57;103286.84;;;-6.35;78.53
76866;BME280;66647;52.124;5.416;2024-01-10T08:01:56;103296.69;;;-6.35;78.36
76866;BME280;66647;52.124;5.416;2024-01-10T08:04:44;103296.00;;;-6.37;78.87
76866;BME280;66647;52.124;5.416;2024-01-10T08:07:41;103292.03;;;-6.33;78.40
76866;BME280;66647;52.124;5.416;2024-01-10T08:10:25;103291.88;;;-6.32;78.61
76866;BME280;66647;52.124;5.416;2024-01-10T08:17:18;103282.97;;;-6.23;77.78
76866;BME280;66647;52.124;5.416;2024-01-10T08:19:59;103276.47;;;-6.20;78.17
76866;BME280;66647;52.124;5.416;2024-01-10T08:22:41;103291.16;;;-6.16;77.83
76866;BME280;66647;52.124;5.416;2024-01-10T08:25:07;103281.16;;;-6.14;77.84
76866;BME280;66647;52.124;5.416;2024-01-10T08:27:57;103278.03;;;-6.10;77.46
76866;BME280;66647;52.124;5.416;2024-01-10T08:30:42;103267.03;;;-6.06;77.20
76866;BME280;66647;52.124;5.416;2024-01-10T08:33:12;103276.41;;;-6.02;77.05
76866;BME280;66647;52.124;5.416;2024-01-10T08:35:53;103273.44;;;-5.99;76.50
76866;BME280;66647;52.124;5.416;2024-01-10T08:38:55;103265.97;;;-5.96;76.72
76866;BME280;66647;52.124;5.416;2024-01-10T08:41:25;103265.50;;;-5.91;76.17
76866;BME280;66647;52.124;5.416;2024-01-10T08:47:39;103279.38;;;-5.80;75.98
76866;BME280;66647;52.124;5.416;2024-01-10T08:50:26;103279.41;;;-5.71;75.26
76866;BME280;66647;52.124;5.416;2024-01-10T08:52:54;103265.59;;;-5.67;74.94
76866;BME280;66647;52.124;5.416;2024-01-10T08:55:59;103250.75;;;-5.61;74.70
76866;BME280;66647;52.124;5.416;2024-01-10T08:58:27;103246.63;;;-5.56;74.23
76866;BME280;66647;52.124;5.416;2024-01-10T09:01:08;103239.97;;;-5.44;74.11
76866;BME280;66647;52.124;5.416;2024-01-10T09:03:57;103257.13;;;-5.20;73.91
76866;BME280;66647;52.124;5.416;2024-01-10T09:06:28;103271.53;;;-5.05;74.08
76866;BME280;66647;52.124;5.416;2024-01-10T09:09:39;103261.72;;;-4.88;72.95
76866;BME280;66647;52.124;5.416;2024-01-10T09:12:09;103255.38;;;-4.71;72.46
76866;BME280;66647;52.124;5.416;2024-01-10T09:15:03;103257.72;;;-4.68;71.62
76866;BME280;66647;52.124;5.416;2024-01-10T09:17:33;103263.22;;;-4.78;71.20
76866;BME280;66647;52.124;5.416;2024-01-10T09:20:03;103274.59;;;-4.84;71.02
76866;BME280;66647;52.124;5.416;2024-01-10T09:22:31;103269.22;;;-4.84;70.38
76866;BME280;66647;52.124;5.416;2024-01-10T09:30:59;103255.88;;;-4.76;69.04
76866;BME280;66647;52.124;5.416;2024-01-10T09:33:38;103263.56;;;-4.72;69.01
76866;BME280;66647;52.124;5.416;2024-01-10T09:36:06;103252.22;;;-4.66;68.83
76866;BME280;66647;52.124;5.416;2024-01-10T09:41:28;103252.06;;;-3.53;67.72
76866;BME280;66647;52.124;5.416;2024-01-10T09:44:23;103253.03;;;-2.30;64.97
76866;BME280;66647;52.124;5.416;2024-01-10T09:47:05;103242.81;;;-1.97;62.00
76866;BME280;66647;52.124;5.416;2024-01-10T09:49:32;103248.53;;;-1.85;59.58
76866;BME280;66647;52.124;5.416;2024-01-10T09:53:05;103252.34;;;-1.80;60.09
76866;BME280;66647;52.124;5.416;2024-01-10T09:55:41;103241.94;;;-1.24;58.22
76866;BME280;66647;52.124;5.416;2024-01-10T09:58:34;103238.31;;;-0.10;58.12
76866;BME280;66647;52.124;5.416;2024-01-10T10:01:46;103248.25;;;0.18;52.81
76866;BME280;66647;52.124;5.416;2024-01-10T10:04:15;103247.47;;;0.24;52.06
76866;BME280;66647;52.124;5.416;2024-01-10T10:06:57;103231.41;;;0.91;50.90
76866;BME280;66647;52.124;5.416;2024-01-10T10:09:59;103235.63;;;2.39;50.14
76866;BME280;66647;52.124;5.416;2024-01-10T10:12:46;103226.47;;;2.91;46.26
76866;BME280;66647;52.124;5.416;2024-01-10T10:15:17;103233.88;;;3.41;45.20
76866;BME280;66647;52.124;5.416;2024-01-10T10:17:46;103233.25;;;3.70;43.44
76866;BME280;66647;52.124;5.416;2024-01-10T10:20:22;103223.44;;;4.19;43.02
76866;BME280;66647;52.124;5.416;2024-01-10T10:23:03;103233.84;;;4.40;42.51
76866;BME280;66647;52.124;5.416;2024-01-10T10:25:35;103235.69;;;4.94;41.58
76866;BME280;66647;52.124;5.416;2024-01-10T10:30:51;103228.56;;;4.63;38.67
76866;BME280;66647;52.124;5.416;2024-01-10T10:34:01;103217.19;;;4.55;39.52
76866;BME280;66647;52.124;5.416;2024-01-10T10:36:32;103218.13;;;4.24;39.87
76866;BME280;66647;52.124;5.416;2024-01-10T10:39:00;103215.13;;;4.32;39.79
76866;BME280;66647;52.124;5.416;2024-01-10T10:41:31;103214.31;;;4.98;38.41
76866;BME280;66647;52.124;5.416;2024-01-10T10:43:59;103211.66;;;4.61;37.94
76866;BME280;66647;52.124;5.416;2024-01-10T10:47:04;103209.09;;;4.96;40.17
76866;BME280;66647;52.124;5.416;2024-01-10T10:49:52;103206.72;;;5.71;38.68
76866;BME280;66647;52.124;5.416;2024-01-10T10:52:48;103210.28;;;5.30;36.10
76866;BME280;66647;52.124;5.416;2024-01-10T10:55:17;103207.78;;;5.17;37.38
76866;BME280;66647;52.124;5.416;2024-01-10T10:58:01;103210.28;;;5.19;36.81
76866;BME280;66647;52.124;5.416;2024-01-10T11:00:46;103206.19;;;5.39;36.77
76866;BME280;66647;52.124;5.416;2024-01-10T11:03:19;103204.09;;;5.65;36.87
76866;BME280;66647;52.124;5.416;2024-01-10T11:06:17;103197.50;;;6.19;37.19
76866;BME280;66647;52.124;5.416;2024-01-10T11:08:54;103199.06;;;6.03;35.29
76866;BME280;66647;52.124;5.416;2024-01-10T11:12:49;103205.56;;;5.91;36.94
76866;BME280;66647;52.124;5.416;2024-01-10T11:24:33;103192.06;;;6.07;35.50
76866;BME280;66647;52.124;5.416;2024-01-10T11:27:16;103193.94;;;5.84;36.12
76866;BME280;66647;52.124;5.416;2024-01-10T11:29:45;103199.16;;;5.97;35.41
76866;BME280;66647;52.124;5.416;2024-01-10T11:39:13;103187.09;;;5.93;35.01
76866;BME280;66647;52.124;5.416;2024-01-10T11:42:08;103189.00;;;6.16;34.32
76866;BME280;66647;52.124;5.416;2024-01-10T11:48:45;103174.13;;;6.47;33.24
76866;BME280;66647;52.124;5.416;2024-01-10T11:52:31;103182.66;;;6.38;35.08
76866;BME280;66647;52.124;5.416;2024-01-10T11:58:12;103175.47;;;7.01;33.25
76866;BME280;66647;52.124;5.416;2024-01-10T12:01:28;103170.59;;;6.74;34.89
76866;BME280;66647;52.124;5.416;2024-01-10T12:04:09;103172.97;;;6.19;32.49
76866;BME280;66647;52.124;5.416;2024-01-10T12:07:14;103163.34;;;6.40;33.01
76866;BME280;66647;52.124;5.416;2024-01-10T12:10:07;103160.91;;;6.55;35.15
76866;BME280;66647;52.124;5.416;2024-01-10T12:12:39;103158.53;;;6.59;32.92
76866;BME280;66647;52.124;5.416;2024-01-10T12:15:06;103149.44;;;6.13;34.25
76866;BME280;66647;52.124;5.416;2024-01-10T12:24:06;103157.47;;;5.50;34.59
76866;BME280;66647;52.124;5.416;2024-01-10T12:26:33;103151.78;;;5.63;34.21
76866;BME280;66647;52.124;5.416;2024-01-10T12:29:18;103151.94;;;5.91;33.86
76866;BME280;66647;52.124;5.416;2024-01-10T12:39:06;103147.44;;;5.97;35.04
76866;BME280;66647;52.124;5.416;2024-01-10T12:41:51;103144.81;;;5.90;35.11
76866;BME280;66647;52.124;5.416;2024-01-10T13:04:52;103145.66;;;2.30;40.33
76866;BME280;66647;52.124;5.416;2024-01-10T13:07:22;103156.56;;;2.11;41.07
76866;BME280;66647;52.124;5.416;2024-01-10T13:09:49;103148.72;;;1.89;41.25
76866;BME280;66647;52.124;5.416;2024-01-10T13:12:15;103144.56;;;1.67;41.08
76866;BME280;66647;52.124;5.416;2024-01-10T13:27:38;103144.78;;;1.32;43.13
76866;BME280;66647;52.124;5.416;2024-01-10T13:30:38;103150.00;;;1.21;44.08
76866;BME280;66647;52.124;5.416;2024-01-10T13:36:03;103145.22;;;1.16;43.66
76866;BME280;66647;52.124;5.416;2024-01-10T13:38:55;103149.38;;;1.12;44.57
76866;BME280;66647;52.124;5.416;2024-01-10T13:45:38;103152.25;;;0.91;44.62
76866;BME280;66647;52.124;5.416;2024-01-10T13:52:20;103156.16;;;0.82;43.62
76866;BME280;66647;52.124;5.416;2024-01-10T13:54:49;103144.91;;;0.72;44.44
76866;BME280;66647;52.124;5.416;2024-01-10T13:57:20;103150.75;;;0.75;45.37
76866;BME280;66647;52.124;5.416;2024-01-10T13:59:53;103156.16;;;0.75;45.33
76866;BME280;66647;52.124;5.416;2024-01-10T14:02:22;103153.66;;;0.74;45.34
76866;BME280;66647;52.124;5.416;2024-01-10T14:04:55;103152.38;;;0.70;45.46
76866;BME280;66647;52.124;5.416;2024-01-10T14:07:28;103153.63;;;0.60;44.50
76866;BME280;66647;52.124;5.416;2024-01-10T14:10:18;103152.16;;;0.58;45.31
76866;BME280;66647;52.124;5.416;2024-01-10T14:12:45;103152.34;;;0.56;45.44
76866;BME280;66647;52.124;5.416;2024-01-10T14:15:23;103148.59;;;0.51;45.63
76866;BME280;66647;52.124;5.416;2024-01-10T14:17:50;103157.09;;;0.48;46.06
76866;BME280;66647;52.124;5.416;2024-01-10T14:20:18;103156.03;;;0.42;46.26
76866;BME280;66647;52.124;5.416;2024-01-10T14:22:45;103153.72;;;0.39;46.67
76866;BME280;66647;52.124;5.416;2024-01-10T14:29:23;103149.56;;;0.30;46.26
76866;BME280;66647;52.124;5.416;2024-01-10T14:32:02;103144.75;;;0.25;46.48
76866;BME280;66647;52.124;5.416;2024-01-10T14:34:59;103149.09;;;0.20;46.70
76866;BME280;66647;52.124;5.416;2024-01-10T14:44:19;103150.44;;;0.03;46.88
76866;BME280;66647;52.124;5.416;2024-01-10T14:46:47;103156.25;;;-0.01;47.20
76866;BME280;66647;52.124;5.416;2024-01-10T14:57:19;103163.22;;;-0.13;47.53
76866;BME280;66647;52.124;5.416;2024-01-10T15:04:36;103168.13;;;-0.23;47.74
76866;BME280;66647;52.124;5.416;2024-01-10T15:11:45;103172.81;;;-0.31;48.62
76866;BME280;66647;52.124;5.416;2024-01-10T15:14:12;103177.78;;;-0.35;48.53
76866;BME280;66647;52.124;5.416;2024-01-10T15:19:58;103171.50;;;-0.42;48.96
76866;BME280;66647;52.124;5.416;2024-01-10T15:22:28;103166.50;;;-0.45;49.53
76866;BME280;66647;52.124;5.416;2024-01-10T15:27:45;103172.03;;;-0.53;50.34
76866;BME280;66647;52.124;5.416;2024-01-10T15:30:12;103168.44;;;-0.60;50.50
76866;BME280;66647;52.124;5.416;2024-01-10T15:32:44;103171.31;;;-0.62;50.63
76866;BME280;66647;52.124;5.416;2024-01-10T15:35:10;103172.75;;;-0.66;50.71
76866;BME280;66647;52.124;5.416;2024-01-10T15:37:54;103183.91;;;-0.69;51.12
76866;BME280;66647;52.124;5.416;2024-01-10T15:41:00;103184.31;;;-0.72;51.61
76866;BME280;66647;52.124;5.416;2024-01-10T15:43:31;103183.84;;;-0.76;51.71
76866;BME280;66647;52.124;5.416;2024-01-10T15:55:08;103184.75;;;-0.90;52.59
76866;BME280;66647;52.124;5.416;2024-01-10T16:00:40;103176.81;;;-0.98;53.31
76866;BME280;66647;52.124;5.416;2024-01-10T16:03:19;103188.16;;;-1.03;53.36
76866;BME280;66647;52.124;5.416;2024-01-10T16:13:13;103190.31;;;-1.13;54.12
76866;BME280;66647;52.124;5.416;2024-01-10T16:15:39;103192.53;;;-1.16;53.96
76866;BME280;66647;52.124;5.416;2024-01-10T16:18:17;103196.25;;;-1.17;54.00
76866;BME280;66647;52.124;5.416;2024-01-10T16:20:53;103194.78;;;-1.20;54.73
76866;BME280;66647;52.124;5.416;2024-01-10T16:23:20;103185.41;;;-1.24;55.03
76866;BME280;66647;52.124;5.416;2024-01-10T16:25:49;103201.94;;;-1.27;55.42
76866;BME280;66647;52.124;5.416;2024-01-10T16:28:19;103202.13;;;-1.28;55.60
76866;BME280;66647;52.124;5.416;2024-01-10T16:30:55;103200.84;;;-1.32;55.22
76866;BME280;66647;52.124;5.416;2024-01-10T16:33:39;103195.66;;;-1.34;55.84
76866;BME280;66647;52.124;5.416;2024-01-10T16:36:09;103196.03;;;-1.37;55.71
76866;BME280;66647;52.124;5.416;2024-01-10T16:38:51;103200.97;;;-1.41;55.63
76866;BME280;66647;52.124;5.416;2024-01-10T16:41:42;103203.84;;;-1.42;56.38
76866;BME280;66647;52.124;5.416;2024-01-10T16:44:09;103207.72;;;-1.45;56.60
76866;BME280;66647;52.124;5.416;2024-01-10T16:47:01;103211.81;;;-1.49;56.87
76866;BME280;66647;52.124;5.416;2024-01-10T16:49:28;103216.53;;;-1.51;56.91
76866;BME280;66647;52.124;5.416;2024-01-10T16:51:55;103222.28;;;-1.54;56.81
76866;BME280;66647;52.124;5.416;2024-01-10T16:54:22;103231.75;;;-1.58;56.76
76866;BME280;66647;52.124;5.416;2024-01-10T16:56:49;103230.28;;;-1.60;56.69
76866;BME280;66647;52.124;5.416;2024-01-10T16:59:16;103231.50;;;-1.63;57.03
76866;BME280;66647;52.124;5.416;2024-01-10T17:01:43;103223.63;;;-1.64;57.62
76866;BME280;66647;52.124;5.416;2024-01-10T17:04:10;103222.50;;;-1.70;57.84
76866;BME280;66647;52.124;5.416;2024-01-10T17:06:44;103233.63;;;-1.73;57.71
76866;BME280;66647;52.124;5.416;2024-01-10T17:09:12;103231.97;;;-1.74;58.14
76866;BME280;66647;52.124;5.416;2024-01-10T17:14:38;103228.63;;;-1.76;58.36
76866;BME280;66647;52.124;5.416;2024-01-10T17:17:21;103236.88;;;-1.78;58.06
76866;BME280;66647;52.124;5.416;2024-01-10T17:23:32;103248.19;;;-1.82;57.86
76866;BME280;66647;52.124;5.416;2024-01-10T17:26:47;103257.44;;;-1.85;58.31
76866;BME280;66647;52.124;5.416;2024-01-10T17:29:13;103249.91;;;-1.89;58.29
76866;BME280;66647;52.124;5.416;2024-01-10T17:31:40;103252.78;;;-1.91;58.19
76866;BME280;66647;52.124;5.416;2024-01-10T17:34:12;103264.38;;;-1.90;58.53
76866;BME280;66647;52.124;5.416;2024-01-10T17:36:39;103261.03;;;-1.92;58.34
76866;BME280;66647;52.124;5.416;2024-01-10T17:39:43;103259.38;;;-1.93;58.75
76866;BME280;66647;52.124;5.416;2024-01-10T17:42:10;103263.47;;;-1.97;58.42
76866;BME280;66647;52.124;5.416;2024-01-10T17:44:36;103257.63;;;-2.01;58.69
76866;BME280;66647;52.124;5.416;2024-01-10T17:47:07;103264.84;;;-2.01;59.06
76866;BME280;66647;52.124;5.416;2024-01-10T17:49:36;103273.94;;;-2.03;59.17
76866;BME280;66647;52.124;5.416;2024-01-10T17:52:05;103279.50;;;-2.04;59.19
76866;BME280;66647;52.124;5.416;2024-01-10T17:54:32;103275.31;;;-2.07;59.35
76866;BME280;66647;52.124;5.416;2024-01-10T17:56:59;103270.94;;;-2.08;59.35
76866;BME280;66647;52.124;5.416;2024-01-10T17:59:25;103277.53;;;-2.10;58.87
76866;BME280;66647;52.124;5.416;2024-01-10T18:01:52;103281.03;;;-2.10;59.35
76866;BME280;66647;52.124;5.416;2024-01-10T18:04:22;103283.72;;;-2.10;58.89
76866;BME280;66647;52.124;5.416;2024-01-10T18:06:48;103276.69;;;-2.11;59.57
76866;BME280;66647;52.124;5.416;2024-01-10T18:09:18;103275.00;;;-2.12;59.44
76866;BME280;66647;52.124;5.416;2024-01-10T18:11:45;103285.09;;;-2.14;59.59
76866;BME280;66647;52.124;5.416;2024-01-10T18:16:27;103286.47;;;-2.18;60.18
76866;BME280;66647;52.124;5.416;2024-01-10T18:18:54;103291.19;;;-2.20;60.02
76866;BME280;66647;52.124;5.416;2024-01-10T18:21:21;103292.88;;;-2.19;60.57
76866;BME280;66647;52.124;5.416;2024-01-10T18:23:48;103294.91;;;-2.21;60.04
76866;BME280;66647;52.124;5.416;2024-01-10T18:26:15;103305.81;;;-2.22;60.76
76866;BME280;66647;52.124;5.416;2024-01-10T18:28:43;103297.94;;;-2.24;60.56
76866;BME280;66647;52.124;5.416;2024-01-10T18:31:10;103304.34;;;-2.25;61.08
76866;BME280;66647;52.124;5.416;2024-01-10T18:33:39;103303.06;;;-2.29;61.04
76866;BME280;66647;52.124;5.416;2024-01-10T18:36:06;103313.81;;;-2.29;61.04
76866;BME280;66647;52.124;5.416;2024-01-10T18:38:33;103315.81;;;-2.31;61.03
76866;BME280;66647;52.124;5.416;2024-01-10T18:41:02;103314.34;;;-2.33;60.62
76866;BME280;66647;52.124;5.416;2024-01-10T18:43:29;103312.00;;;-2.37;60.76
76866;BME280;66647;52.124;5.416;2024-01-10T18:45:56;103311.16;;;-2.37;61.33
76866;BME280;66647;52.124;5.416;2024-01-10T18:48:22;103312.19;;;-2.38;61.18
76866;BME280;66647;52.124;5.416;2024-01-10T18:54:52;103310.31;;;-2.38;60.74